Time;durP1;ratioP1;P1;durP2;ratioP2;P2;SDS_P1;SDS_P2;PMS_P1;PMS_P2;Temp;Humidity;BMP_temperature;BMP_pressure;BME280_temperature;BME280_humidity;BME280_pressure;Samples;Min_cycle;Max_cycle;Signal;HPM_P1;HPM_P2
2022/01/31 00:02:14;;;;;;;9.88;3.85;;;10.40;70.30;;;;;;5096141;28;20039;-70
2022/01/31 00:04:42;;;;;;;13.77;3.97;;;10.30;70.10;;;;;;5074851;28;20032;-70
2022/01/31 00:07:08;;;;;;;11.18;3.50;;;10.30;70.50;;;;;;5079209;28;20051;-69
2022/01/31 00:09:34;;;;;;;8.93;3.45;;;10.20;70.50;;;;;;5095893;28;20054;-70
2022/01/31 00:12:07;;;;;;;8.50;3.28;;;10.30;70.70;;;;;;5078092;28;20032;-70
2022/01/31 00:14:38;;;;;;;9.75;3.63;;;10.30;70.80;;;;;;5078418;28;20073;-70
2022/01/31 00:17:06;;;;;;;8.85;3.10;;;10.20;71.00;;;;;;5095856;28;20028;-70
2022/01/31 00:19:32;;;;;;;8.73;3.13;;;10.30;71.30;;;;;;5092100;28;20043;-70
2022/01/31 00:21:59;;;;;;;9.10;2.80;;;10.30;71.40;;;;;;5098326;28;20055;-70
2022/01/31 00:24:24;;;;;;;5.47;2.40;;;10.30;71.60;;;;;;5096358;28;20111;-70
2022/01/31 00:26:50;;;;;;;8.85;2.90;;;10.40;71.40;;;;;;5096235;28;20130;-70
2022/01/31 00:29:17;;;;;;;10.95;3.10;;;10.40;71.30;;;;;;5078095;28;20024;-70
2022/01/31 00:31:43;;;;;;;8.88;2.80;;;10.40;71.50;;;;;;5092312;28;20016;-70
2022/01/31 00:34:08;;;;;;;7.43;3.00;;;10.40;71.60;;;;;;5096383;28;20047;-70
2022/01/31 00:36:34;;;;;;;7.20;2.70;;;10.40;71.80;;;;;;5095747;28;20051;-71
2022/01/31 00:39:00;;;;;;;8.63;2.70;;;10.40;71.90;;;;;;5096088;28;20082;-70
2022/01/31 00:41:25;;;;;;;9.13;2.95;;;10.40;72.00;;;;;;5103096;28;20503;-70
2022/01/31 00:43:59;;;;;;;5.22;2.50;;;10.40;72.00;;;;;;5093765;28;20028;-71
2022/01/31 00:46:37;;;;;;;;;;;10.40;71.90;;;;;;5092749;28;20032;-70
2022/01/31 00:49:02;;;;;;;6.30;2.58;;;10.30;71.60;;;;;;5097754;28;19908;-70
2022/01/31 00:51:28;;;;;;;6.75;2.55;;;10.20;72.70;;;;;;5095836;28;20024;-70
2022/01/31 00:53:54;;;;;;;9.77;2.70;;;10.10;72.90;;;;;;5095854;28;20373;-70
2022/01/31 00:56:19;;;;;;;6.97;2.85;;;10.10;73.50;;;;;;5095991;28;20488;-70
2022/01/31 00:58:45;;;;;;;5.30;2.03;;;10.10;73.40;;;;;;5092626;28;20028;-70
2022/01/31 01:01:10;;;;;;;5.68;2.08;;;10.10;73.80;;;;;;5095064;28;20536;-70
2022/01/31 01:03:36;;;;;;;7.07;2.40;;;10.10;74.00;;;;;;5096397;28;20032;-70
2022/01/31 01:06:02;;;;;;;8.23;2.53;;;10.10;73.80;;;;;;5095388;28;20115;-70
2022/01/31 01:08:27;;;;;;;7.22;2.83;;;10.10;73.80;;;;;;5095808;28;20032;-70
2022/01/31 01:10:53;;;;;;;7.35;2.60;;;10.20;74.20;;;;;;5093243;28;20028;-70
2022/01/31 01:13:18;;;;;;;5.70;2.50;;;10.20;74.40;;;;;;5105323;28;20050;-70
2022/01/31 01:15:44;;;;;;;8.20;2.40;;;10.30;73.90;;;;;;5097066;28;20031;-70
2022/01/31 01:18:10;;;;;;;6.60;2.13;;;10.30;74.30;;;;;;5095379;28;20070;-70
2022/01/31 01:20:35;;;;;;;5.78;1.95;;;10.40;74.20;;;;;;5095569;28;20036;-70
2022/01/31 01:23:01;;;;;;;5.45;2.28;;;10.30;74.50;;;;;;5094462;28;20027;-69
2022/01/31 01:25:26;;;;;;;6.18;1.98;;;10.40;74.60;;;;;;5091647;28;20024;-70
2022/01/31 01:27:54;;;;;;;6.05;2.45;;;10.50;74.50;;;;;;5096177;28;20024;-70
2022/01/31 01:30:20;;;;;;;5.50;2.30;;;10.40;75.00;;;;;;5076571;28;20077;-70
2022/01/31 01:33:02;;;;;;;5.72;2.10;;;10.40;74.50;;;;;;5094902;28;20039;-70
2022/01/31 01:35:32;;;;;;;7.00;2.30;;;10.30;74.80;;;;;;5095263;28;20469;-70
2022/01/31 01:38:04;;;;;;;3.97;2.03;;;10.40;75.20;;;;;;5093889;28;20472;-70
2022/01/31 01:40:29;;;;;;;5.72;1.83;;;10.30;74.90;;;;;;5091189;28;20016;-69
2022/01/31 01:42:55;;;;;;;5.20;1.98;;;10.30;75.80;;;;;;5097020;28;20388;-70
2022/01/31 01:45:21;;;;;;;6.07;1.95;;;10.30;75.80;;;;;;5094577;28;20491;-70
2022/01/31 01:47:47;;;;;;;4.88;2.00;;;10.40;75.60;;;;;;5094770;28;20103;-69
2022/01/31 01:50:13;;;;;;;4.28;1.70;;;10.40;75.60;;;;;;5091833;28;20174;-70
2022/01/31 01:52:38;;;;;;;6.03;2.22;;;10.40;75.80;;;;;;5088217;28;20035;-70
2022/01/31 01:55:06;;;;;;;5.25;1.80;;;10.40;75.50;;;;;;5078521;28;20031;-70
2022/01/31 01:57:31;;;;;;;5.55;1.90;;;10.50;75.80;;;;;;5095097;28;20020;-71
2022/01/31 01:59:58;;;;;;;3.65;1.70;;;10.50;76.00;;;;;;5094858;28;20478;-70
2022/01/31 02:02:24;;;;;;;3.83;1.73;;;10.50;75.90;;;;;;5094632;28;20020;-70
2022/01/31 02:04:50;;;;;;;4.35;1.63;;;10.50;76.00;;;;;;5072763;28;20061;-70
2022/01/31 02:07:16;;;;;;;4.60;1.90;;;10.50;76.40;;;;;;5093607;28;20054;-70
2022/01/31 02:09:45;;;;;;;2.72;1.50;;;10.50;75.90;;;;;;5078018;28;20040;-70
2022/01/31 02:12:11;;;;;;;2.45;1.38;;;10.50;76.30;;;;;;5094328;28;20047;-70
2022/01/31 02:14:37;;;;;;;3.33;1.67;;;10.60;76.50;;;;;;5094612;28;20024;-70
2022/01/31 02:17:04;;;;;;;3.47;1.60;;;10.60;76.70;;;;;;5094233;28;20495;-70
2022/01/31 02:19:30;;;;;;;3.53;1.50;;;10.60;77.30;;;;;;5090894;28;20561;-70
2022/01/31 02:21:55;;;;;;;5.68;1.85;;;10.60;77.00;;;;;;5096498;28;20028;-70
2022/01/31 02:24:22;;;;;;;4.60;1.70;;;10.70;76.80;;;;;;5094598;28;20038;-70
2022/01/31 02:26:48;;;;;;;4.38;1.30;;;10.60;76.70;;;;;;5094339;28;20107;-70
2022/01/31 02:29:14;;;;;;;3.42;1.33;;;10.70;77.20;;;;;;5076424;28;20031;-70
2022/01/31 02:31:47;;;;;;;2.90;1.20;;;10.70;77.30;;;;;;5090630;28;20035;-70
2022/01/31 02:34:13;;;;;;;4.83;1.40;;;10.70;76.60;;;;;;5094068;28;20028;-70
2022/01/31 02:36:39;;;;;;;2.70;1.35;;;10.70;76.60;;;;;;5095463;28;20410;-70
2022/01/31 02:39:06;;;;;;;3.60;1.20;;;10.80;76.50;;;;;;5094412;28;20125;-70
2022/01/31 02:41:38;;;;;;;2.88;1.10;;;10.80;76.70;;;;;;5094087;28;20016;-70
2022/01/31 02:44:08;;;;;;;2.17;1.30;;;10.80;77.20;;;;;;5092258;28;20027;-70
2022/01/31 02:46:34;;;;;;;2.55;1.42;;;10.80;77.10;;;;;;5055016;28;20047;-70
2022/01/31 02:48:59;;;;;;;4.57;1.15;;;10.80;77.40;;;;;;5096237;28;20476;-70
2022/01/31 02:51:27;;;;;;;3.60;1.35;;;10.80;76.90;;;;;;5093687;28;20044;-70
2022/01/31 02:53:53;;;;;;;3.03;1.08;;;10.80;77.10;;;;;;5094076;28;20114;-70
2022/01/31 02:56:18;;;;;;;3.13;0.98;;;10.80;77.30;;;;;;5093754;28;20475;-70
2022/01/31 02:58:44;;;;;;;1.25;0.90;;;10.80;78.70;;;;;;5091197;28;20488;-70
2022/01/31 03:01:10;;;;;;;2.45;1.08;;;10.80;79.50;;;;;;5098184;28;20034;-70
2022/01/31 03:03:35;;;;;;;1.90;0.93;;;10.80;78.50;;;;;;5098865;28;20373;-70
2022/01/31 03:06:01;;;;;;;2.15;0.80;;;10.80;79.40;;;;;;5097327;28;20393;-70
2022/01/31 03:08:27;;;;;;;1.85;0.75;;;10.80;79.40;;;;;;5097648;28;20445;-70
2022/01/31 03:10:53;;;;;;;3.03;0.73;;;10.90;78.90;;;;;;5095465;28;20069;-70
2022/01/31 03:13:19;;;;;;;2.85;1.20;;;10.90;79.30;;;;;;5089071;28;20500;-70
2022/01/31 03:15:44;;;;;;;1.40;0.90;;;10.90;79.30;;;;;;5107278;28;20031;-70
2022/01/31 03:18:10;;;;;;;3.00;1.17;;;10.90;79.60;;;;;;5100590;28;20054;-70
2022/01/31 03:20:36;;;;;;;1.48;0.85;;;10.90;79.10;;;;;;5097383;28;20107;-70
2022/01/31 03:23:02;;;;;;;2.33;1.20;;;10.90;79.20;;;;;;5076874;28;20066;-70
2022/01/31 03:25:28;;;;;;;2.08;0.98;;;10.90;79.30;;;;;;5093576;28;20024;-70
2022/01/31 03:27:55;;;;;;;2.80;1.13;;;10.90;79.50;;;;;;5099549;28;20189;-70
2022/01/31 03:30:22;;;;;;;3.00;1.38;;;11.00;80.20;;;;;;5097546;28;20013;-70
2022/01/31 03:32:48;;;;;;;1.90;1.30;;;11.00;79.70;;;;;;5097437;28;20055;-70
2022/01/31 03:35:15;;;;;;;1.80;1.20;;;11.00;79.10;;;;;;5079047;28;20031;-70
2022/01/31 03:37:40;;;;;;;4.00;1.40;;;11.00;80.50;;;;;;5093782;28;20431;-70
2022/01/31 03:40:08;;;;;;;2.53;1.17;;;11.00;79.50;;;;;;5097446;28;20036;-70
2022/01/31 03:42:36;;;;;;;3.63;1.40;;;10.90;79.70;;;;;;5096223;28;20020;-70
2022/01/31 03:45:03;;;;;;;2.63;1.35;;;11.00;79.40;;;;;;5097232;28;20012;-70
2022/01/31 03:47:29;;;;;;;3.10;1.15;;;10.90;79.10;;;;;;5097074;28;20484;-70
2022/01/31 03:49:55;;;;;;;2.28;0.82;;;11.00;78.90;;;;;;5095117;28;20023;-70
2022/01/31 03:52:21;;;;;;;2.42;1.00;;;10.80;79.70;;;;;;5076264;28;20034;-70
2022/01/31 03:54:47;;;;;;;2.03;1.20;;;10.80;80.00;;;;;;5098841;28;20024;-70
2022/01/31 03:57:12;;;;;;;1.80;0.93;;;10.80;79.40;;;;;;5096780;28;20381;-70
2022/01/31 03:59:38;;;;;;;2.70;1.00;;;10.70;80.40;;;;;;5097222;28;20085;-70
2022/01/31 04:02:06;;;;;;;2.20;1.10;;;10.70;80.60;;;;;;5095090;28;20107;-70
2022/01/31 04:04:32;;;;;;;3.22;1.02;;;10.70;80.00;;;;;;5092659;28;20103;-70
2022/01/31 04:06:57;;;;;;;3.22;1.02;;;10.80;80.80;;;;;;5098884;28;20050;-70
2022/01/31 04:09:23;;;;;;;1.60;0.80;;;10.80;80.90;;;;;;5078383;28;20024;-70
2022/01/31 04:11:49;;;;;;;2.03;1.00;;;10.90;80.70;;;;;;5096628;28;20101;-70
2022/01/31 04:14:14;;;;;;;2.40;1.33;;;10.80;80.50;;;;;;5096595;28;20046;-70
2022/01/31 04:16:40;;;;;;;2.50;0.90;;;10.90;80.80;;;;;;5074743;28;20508;-70
2022/01/31 04:19:05;;;;;;;1.85;0.80;;;10.90;80.50;;;;;;5079914;28;20039;-70
2022/01/31 04:21:32;;;;;;;1.98;0.80;;;10.90;80.70;;;;;;5096874;28;20107;-70
2022/01/31 04:23:58;;;;;;;1.17;0.50;;;11.00;81.10;;;;;;5096145;28;20024;-70
2022/01/31 04:26:31;;;;;;;2.47;0.80;;;11.00;80.20;;;;;;5096544;28;20456;-70
2022/01/31 04:29:05;;;;;;;5.20;0.73;;;11.00;80.30;;;;;;5095017;28;20024;-70
2022/01/31 04:31:39;;;;;;;1.75;0.60;;;11.00;81.30;;;;;;5092354;28;20043;-70
2022/01/31 04:34:05;;;;;;;3.72;0.70;;;11.00;81.40;;;;;;5106381;28;20032;-70
2022/01/31 04:36:31;;;;;;;3.85;0.70;;;11.00;80.90;;;;;;5096725;28;20024;-71
2022/01/31 04:38:57;;;;;;;2.92;0.65;;;11.00;81.30;;;;;;5095948;28;20063;-70
2022/01/31 04:41:22;;;;;;;4.00;0.60;;;11.10;81.00;;;;;;5094727;28;20020;-70
2022/01/31 04:43:50;;;;;;;4.10;0.80;;;11.10;81.80;;;;;;5093813;28;20403;-70
2022/01/31 04:46:16;;;;;;;3.42;0.60;;;11.10;81.20;;;;;;5094695;28;20374;-70
2022/01/31 04:48:43;;;;;;;4.40;1.08;;;11.20;81.40;;;;;;5097612;28;20503;-70
2022/01/31 04:51:10;;;;;;;3.97;0.90;;;11.20;81.10;;;;;;5095848;28;20480;-70
2022/01/31 04:53:36;;;;;;;6.25;0.80;;;11.20;81.10;;;;;;5089909;28;20055;-70
2022/01/31 04:56:02;;;;;;;4.30;1.00;;;11.20;80.60;;;;;;5089400;28;20032;-70
2022/01/31 04:58:29;;;;;;;5.85;1.48;;;11.20;80.80;;;;;;5092065;28;20036;-70
2022/01/31 05:00:55;;;;;;;6.35;1.05;;;11.20;80.60;;;;;;5097835;28;20461;-70
2022/01/31 05:03:21;;;;;;;5.75;1.30;;;11.10;79.50;;;;;;5095752;28;20074;-70
2022/01/31 05:05:47;;;;;;;8.45;1.42;;;11.00;79.00;;;;;;5096150;28;20103;-71
2022/01/31 05:08:13;;;;;;;5.38;1.25;;;11.00;78.90;;;;;;5095484;28;20055;-70
2022/01/31 05:10:44;;;;;;;4.00;0.98;;;11.00;78.60;;;;;;5091496;28;20021;-70
2022/01/31 05:13:12;;;;;;;8.45;1.42;;;10.90;78.70;;;;;;5095451;28;20082;-70
2022/01/31 05:15:38;;;;;;;6.38;1.10;;;10.80;78.20;;;;;;5112278;27;20028;-70
2022/01/31 05:18:04;;;;;;;4.63;0.77;;;10.80;78.50;;;;;;5095245;28;20085;-70
2022/01/31 05:20:30;;;;;;;6.40;1.48;;;10.80;78.40;;;;;;5093780;28;20481;-70
2022/01/31 05:22:55;;;;;;;8.98;1.30;;;10.70;78.10;;;;;;5093322;28;20076;-70
2022/01/31 05:25:21;;;;;;;7.13;1.00;;;10.70;77.90;;;;;;5092706;28;20031;-70
2022/01/31 05:27:46;;;;;;;6.68;1.20;;;10.70;77.80;;;;;;5097392;28;20495;-70
2022/01/31 05:30:12;;;;;;;3.05;0.85;;;10.60;77.80;;;;;;5095195;28;20035;-70
2022/01/31 05:32:38;;;;;;;4.68;1.20;;;10.60;77.70;;;;;;5095245;28;20020;-70
2022/01/31 05:35:05;;;;;;;7.43;1.20;;;10.60;77.50;;;;;;5094578;28;20034;-70
2022/01/31 05:37:31;;;;;;;4.93;0.95;;;10.50;77.40;;;;;;5091077;28;20032;-70
2022/01/31 05:39:57;;;;;;;5.70;1.10;;;10.50;77.40;;;;;;5097212;28;20495;-70
2022/01/31 05:42:23;;;;;;;6.00;1.10;;;10.50;77.40;;;;;;5095184;28;20028;-70
2022/01/31 05:44:48;;;;;;;5.88;1.17;;;10.40;77.20;;;;;;5095001;28;20531;-70
2022/01/31 05:47:14;;;;;;;7.40;1.30;;;10.40;77.40;;;;;;5095114;28;20093;-71
2022/01/31 05:49:40;;;;;;;6.43;1.02;;;10.40;77.20;;;;;;5089832;28;20020;-70
2022/01/31 05:52:07;;;;;;;7.05;1.20;;;10.40;77.00;;;;;;5088043;28;20073;-70
2022/01/31 05:54:35;;;;;;;6.90;1.10;;;10.40;77.10;;;;;;5072903;28;20514;-70
2022/01/31 05:57:01;;;;;;;6.18;1.13;;;10.40;76.90;;;;;;5091016;28;20046;-70
2022/01/31 05:59:27;;;;;;;6.03;1.00;;;10.30;76.90;;;;;;5093323;28;20451;-70
2022/01/31 06:01:54;;;;;;;4.55;1.15;;;10.30;76.50;;;;;;5092563;28;20020;-70
2022/01/31 06:04:19;;;;;;;7.75;2.03;;;10.30;76.50;;;;;;5074021;28;20124;-70
2022/01/31 06:06:45;;;;;;;7.78;1.67;;;10.30;76.50;;;;;;5094559;28;20122;-70
2022/01/31 06:09:11;;;;;;;5.82;1.40;;;10.30;76.10;;;;;;5094687;28;20709;-70
2022/01/31 06:11:37;;;;;;;5.13;1.15;;;10.20;76.20;;;;;;5094686;28;20063;-70
2022/01/31 06:14:06;;;;;;;6.90;1.50;;;10.20;76.00;;;;;;5094307;28;20126;-70
2022/01/31 06:16:32;;;;;;;7.30;1.15;;;10.20;76.20;;;;;;5091399;28;20149;-70
2022/01/31 06:18:59;;;;;;;7.72;1.30;;;10.20;76.20;;;;;;5098163;28;20028;-70
2022/01/31 06:21:24;;;;;;;5.18;1.20;;;10.20;75.80;;;;;;5096451;28;20028;-70
2022/01/31 06:23:50;;;;;;;5.40;1.20;;;10.20;76.00;;;;;;5094584;28;20021;-70
2022/01/31 06:26:16;;;;;;;7.20;1.20;;;10.20;75.80;;;;;;5095120;28;20271;-70
2022/01/31 06:28:41;;;;;;;3.45;1.00;;;10.20;75.90;;;;;;5087077;28;20024;-70
2022/01/31 06:31:07;;;;;;;3.67;0.88;;;10.20;76.00;;;;;;5112032;28;20020;-71
2022/01/31 06:33:33;;;;;;;5.18;0.95;;;10.20;75.80;;;;;;5094751;28;20086;-70
2022/01/31 06:35:59;;;;;;;3.92;0.82;;;10.20;76.00;;;;;;5105034;28;20032;-70
2022/01/31 06:38:28;;;;;;;4.43;1.15;;;10.20;75.90;;;;;;5106380;28;20027;-70
2022/01/31 06:40:54;;;;;;;4.75;1.10;;;10.20;75.70;;;;;;5096350;28;20028;-70
2022/01/31 06:43:20;;;;;;;3.35;1.00;;;10.20;75.50;;;;;;5077842;28;20028;-70
2022/01/31 06:45:46;;;;;;;5.55;1.05;;;10.20;75.50;;;;;;5098471;28;20069;-70
2022/01/31 06:48:11;;;;;;;2.85;0.80;;;10.20;75.50;;;;;;5098058;28;20492;-70
2022/01/31 06:50:37;;;;;;;6.70;1.10;;;10.20;75.30;;;;;;5080019;28;20031;-70
2022/01/31 06:53:05;;;;;;;5.72;1.13;;;10.20;75.40;;;;;;5097507;28;20032;-70
2022/01/31 06:55:33;;;;;;;6.47;1.10;;;10.20;75.30;;;;;;5094273;28;20035;-70
2022/01/31 06:57:59;;;;;;;4.68;1.50;;;10.10;75.30;;;;;;5100120;28;20542;-70
2022/01/31 07:00:25;;;;;;;3.95;1.10;;;10.20;75.80;;;;;;5098092;28;20024;-70
2022/01/31 07:02:51;;;;;;;5.28;1.30;;;10.20;75.80;;;;;;5097559;28;20051;-70
2022/01/31 07:05:17;;;;;;;6.93;1.30;;;10.20;75.50;;;;;;5094830;28;20535;-70
2022/01/31 07:07:43;;;;;;;5.10;1.08;;;10.30;75.50;;;;;;5089559;28;20484;-70
2022/01/31 07:10:10;;;;;;;5.32;1.08;;;10.30;75.60;;;;;;5098009;28;20020;-70
2022/01/31 07:12:39;;;;;;;5.20;1.30;;;10.30;75.30;;;;;;5098215;28;20060;-70
2022/01/31 07:15:08;;;;;;;5.88;1.23;;;10.30;75.20;;;;;;5097785;28;20031;-70
2022/01/31 07:17:35;;;;;;;5.38;1.42;;;10.30;75.10;;;;;;5077636;28;20051;-70
2022/01/31 07:20:12;;;;;;;4.20;1.05;;;10.20;75.00;;;;;;5096262;28;20395;-69
2022/01/31 07:22:39;;;;;;;6.13;1.20;;;10.20;75.10;;;;;;5077348;28;20102;-70
2022/01/31 07:25:21;;;;;;;4.85;1.30;;;10.30;74.90;;;;;;5099161;28;20055;-70
2022/01/31 07:27:47;;;;;;;7.18;1.15;;;10.20;74.80;;;;;;5079226;28;20526;-69
2022/01/31 07:30:12;;;;;;;7.15;1.30;;;10.10;74.60;;;;;;5097647;28;20032;-69
2022/01/31 07:32:41;;;;;;;8.23;1.30;;;10.10;74.80;;;;;;5097149;28;20028;-69
2022/01/31 07:35:09;;;;;;;6.13;1.15;;;10.10;74.70;;;;;;5097297;28;20039;-69
2022/01/31 07:37:35;;;;;;;4.97;1.02;;;10.00;74.80;;;;;;5076971;28;20532;-69
2022/01/31 07:40:04;;;;;;;8.65;1.50;;;10.10;75.10;;;;;;5076815;28;20483;-69
2022/01/31 07:42:30;;;;;;;4.85;1.20;;;10.10;74.70;;;;;;5097391;28;20028;-69
2022/01/31 07:44:56;;;;;;;4.03;1.55;;;10.00;74.70;;;;;;5078725;28;20069;-69
2022/01/31 07:47:22;;;;;;;4.38;0.95;;;10.10;75.10;;;;;;5096688;28;20019;-69
2022/01/31 07:49:50;;;;;;;7.20;1.40;;;10.10;74.60;;;;;;5093863;28;20028;-70
2022/01/31 07:52:16;;;;;;;5.80;1.35;;;10.10;75.00;;;;;;5095546;28;20028;-69
2022/01/31 07:54:43;;;;;;;6.05;1.30;;;10.10;75.10;;;;;;5098351;28;20036;-70
2022/01/31 07:57:09;;;;;;;7.50;1.23;;;10.20;75.20;;;;;;5095445;28;20020;-70
2022/01/31 07:59:34;;;;;;;5.95;1.35;;;10.20;75.10;;;;;;5096717;28;20050;-69
2022/01/31 08:02:00;;;;;;;5.18;1.33;;;10.30;74.90;;;;;;5095280;28;20072;-70
2022/01/31 08:04:25;;;;;;;5.22;1.23;;;10.30;75.10;;;;;;5093152;28;20658;-70
2022/01/31 08:06:51;;;;;;;5.15;1.40;;;10.40;74.70;;;;;;5079393;28;20031;-70
2022/01/31 08:09:17;;;;;;;6.13;1.50;;;10.40;74.60;;;;;;5091723;28;20035;-70
2022/01/31 08:11:42;;;;;;;6.63;1.40;;;10.50;74.90;;;;;;5091890;28;20100;-70
2022/01/31 08:14:10;;;;;;;7.35;1.40;;;10.50;74.70;;;;;;5089053;28;20036;-70
2022/01/31 08:16:37;;;;;;;6.70;1.58;;;10.60;74.90;;;;;;5092235;28;20028;-70
2022/01/31 08:19:05;;;;;;;8.95;1.88;;;10.60;74.60;;;;;;5091751;28;20020;-70
2022/01/31 08:21:31;;;;;;;6.43;1.55;;;10.60;74.40;;;;;;5091274;28;20070;-70
2022/01/31 08:23:57;;;;;;;5.35;1.30;;;10.60;74.60;;;;;;5095577;28;20024;-70
2022/01/31 08:26:23;;;;;;;7.38;1.58;;;10.80;75.10;;;;;;5094130;28;20035;-70
2022/01/31 08:31:23;;;;;;;4.30;1.10;;;11.20;76.00;;;;;;5103195;28;20476;-70
2022/01/31 08:34:03;;;;;;;5.38;1.48;;;11.40;75.40;;;;;;5109975;28;20028;-70
2022/01/31 08:36:34;;;;;;;6.30;1.30;;;11.60;74.60;;;;;;5082672;28;20023;-70
2022/01/31 08:39:08;;;;;;;5.57;1.52;;;11.60;73.00;;;;;;5106949;28;20028;-70
2022/01/31 08:41:35;;;;;;;8.48;1.38;;;11.40;73.10;;;;;;5103918;28;20024;-69
2022/01/31 08:44:01;;;;;;;6.55;1.33;;;11.30;72.70;;;;;;5106811;28;20022;-69
2022/01/31 08:46:27;;;;;;;8.05;1.50;;;11.20;73.30;;;;;;5108055;28;20036;-69
2022/01/31 08:48:55;;;;;;;5.85;1.60;;;11.20;73.60;;;;;;5097757;28;20411;-71
2022/01/31 08:51:20;;;;;;;5.90;1.50;;;11.20;73.60;;;;;;5092834;28;20039;-70
2022/01/31 08:53:48;;;;;;;7.85;1.30;;;11.20;73.50;;;;;;5084760;28;20040;-69
2022/01/31 08:56:14;;;;;;;7.60;1.80;;;11.20;73.80;;;;;;5094667;28;20090;-69
2022/01/31 08:58:48;;;;;;;8.90;1.40;;;11.20;73.90;;;;;;5100821;28;20020;-68
2022/01/31 09:01:20;;;;;;;6.60;1.38;;;11.30;73.70;;;;;;5092747;28;20015;-69
2022/01/31 09:04:00;;;;;;;6.97;1.40;;;11.30;73.80;;;;;;5099047;28;20056;-69
2022/01/31 09:06:29;;;;;;;6.50;1.50;;;11.30;73.50;;;;;;5102149;28;20015;-69
2022/01/31 09:08:56;;;;;;;9.57;1.80;;;11.30;73.60;;;;;;5106588;28;20033;-68
2022/01/31 09:11:21;;;;;;;8.27;1.40;;;11.30;73.50;;;;;;5104614;28;20043;-69
2022/01/31 09:13:47;;;;;;;7.60;1.50;;;11.20;73.40;;;;;;5080920;28;20052;-68
2022/01/31 09:16:13;;;;;;;7.82;1.60;;;11.20;73.70;;;;;;5110984;28;20058;-68
2022/01/31 09:18:38;;;;;;;6.75;1.50;;;11.30;74.30;;;;;;5100604;28;20028;-68
2022/01/31 09:21:05;;;;;;;6.72;1.60;;;11.40;74.60;;;;;;5106206;28;20016;-68
2022/01/31 09:23:31;;;;;;;8.38;1.65;;;11.60;76.50;;;;;;5070632;28;20032;-71
2022/01/31 09:25:57;;;;;;;9.00;1.27;;;11.80;73.50;;;;;;5092867;28;20024;-69
2022/01/31 09:28:24;;;;;;;6.32;1.60;;;11.70;72.10;;;;;;5090367;28;20027;-71
2022/01/31 09:30:52;;;;;;;7.78;1.88;;;11.80;73.20;;;;;;5088355;28;20020;-70
2022/01/31 09:33:19;;;;;;;7.15;1.40;;;11.90;73.00;;;;;;5072604;28;20088;-68
2022/01/31 09:35:45;;;;;;;7.05;1.50;;;12.30;74.90;;;;;;5082672;28;20026;-68
2022/01/31 09:38:13;;;;;;;7.28;1.90;;;12.70;73.50;;;;;;5093152;28;20063;-70
2022/01/31 09:40:40;;;;;;;6.82;1.50;;;12.80;70.80;;;;;;5096540;28;20024;-71
2022/01/31 09:48:33;;;;;;;;;;;12.30;69.40;;;;;;5085288;28;20029;-70
2022/01/31 09:51:05;;;;;;;5.18;1.20;;;12.20;70.90;;;;;;5086557;28;19912;-71
2022/01/31 09:53:32;;;;;;;4.88;1.20;;;12.10;70.40;;;;;;5086320;28;20499;-72
2022/01/31 09:55:58;;;;;;;7.00;1.60;;;12.00;69.90;;;;;;5091928;28;20150;-71
2022/01/31 09:58:29;;;;;;;6.95;1.60;;;11.90;69.90;;;;;;5089501;28;20386;-71
2022/01/31 10:01:11;;;;;;;5.03;1.10;;;12.00;71.40;;;;;;5094750;28;20018;-70
2022/01/31 10:04:19;;;;;;;7.47;1.40;;;12.20;71.30;;;;;;5089472;28;20032;-72
2022/01/31 10:06:48;;;;;;;5.28;1.20;;;12.40;70.80;;;;;;5087315;28;20029;-72
2022/01/31 10:09:21;;;;;;;7.35;1.70;;;12.30;69.70;;;;;;5090434;28;20020;-70
2022/01/31 10:11:55;;;;;;;7.13;1.48;;;12.70;72.20;;;;;;5087249;28;20033;-73
2022/01/31 10:17:31;;;;;;;6.30;1.30;;;14.10;70.00;;;;;;5085149;28;20112;-71
2022/01/31 10:20:00;;;;;;;7.55;1.33;;;14.00;66.30;;;;;;5092858;28;20035;-71
2022/01/31 10:22:28;;;;;;;5.65;1.50;;;13.90;65.60;;;;;;5089089;28;20016;-71
2022/01/31 10:24:55;;;;;;;6.70;1.50;;;13.60;65.40;;;;;;5083033;28;20032;-71
2022/01/31 10:27:29;;;;;;;7.00;1.30;;;13.30;65.90;;;;;;5091100;28;20027;-71
2022/01/31 10:30:05;;;;;;;6.45;1.48;;;13.10;66.50;;;;;;5091356;28;20020;-71
2022/01/31 10:32:35;;;;;;;7.70;1.38;;;13.40;67.50;;;;;;5087941;28;20496;-71
2022/01/31 10:35:07;;;;;;;4.60;1.35;;;13.30;66.00;;;;;;5088508;28;20056;-70
2022/01/31 10:37:35;;;;;;;6.50;1.30;;;13.10;65.90;;;;;;5097137;28;20742;-82
2022/01/31 10:53:47;;;;;;;3.78;1.45;;;12.40;67.80;;;;;;5085054;28;20075;-73
2022/01/31 10:56:12;;;;;;;6.88;1.65;;;12.50;67.30;;;;;;5103101;28;20577;-73
2022/01/31 10:58:52;;;;;;;5.35;1.45;;;12.40;67.00;;;;;;5073018;28;20074;-73
2022/01/31 11:01:19;;;;;;;8.27;1.85;;;12.30;67.50;;;;;;5086711;28;20100;-72
2022/01/31 11:03:46;;;;;;;5.65;1.45;;;12.10;67.20;;;;;;5088056;28;20491;-71
2022/01/31 11:06:12;;;;;;;5.80;1.58;;;12.10;66.80;;;;;;5086455;28;20072;-72
2022/01/31 11:08:38;;;;;;;5.57;1.35;;;12.10;67.50;;;;;;5094980;28;20063;-71
2022/01/31 11:11:04;;;;;;;6.95;1.60;;;12.10;66.70;;;;;;5087445;28;20373;-71
2022/01/31 11:13:34;;;;;;;8.18;1.40;;;12.40;69.20;;;;;;5089474;28;20049;-71
2022/01/31 11:16:00;;;;;;;4.80;0.98;;;13.10;69.20;;;;;;5091505;28;20494;-71
2022/01/31 11:18:31;;;;;;;5.18;1.00;;;13.30;63.70;;;;;;5078560;28;20066;-72
2022/01/31 11:21:01;;;;;;;7.13;1.30;;;13.20;62.60;;;;;;5100747;28;20027;-71
2022/01/31 11:23:28;;;;;;;5.75;1.20;;;12.90;61.50;;;;;;5095457;28;20511;-70
2022/01/31 11:26:00;;;;;;;8.50;1.15;;;12.70;61.70;;;;;;5096203;28;20031;-71
2022/01/31 11:28:31;;;;;;;4.50;1.27;;;12.80;64.00;;;;;;5091301;28;20065;-70
2022/01/31 11:30:57;;;;;;;5.18;1.15;;;12.80;64.00;;;;;;5116502;27;20016;-71
2022/01/31 11:33:24;;;;;;;5.63;1.08;;;12.90;61.60;;;;;;5068354;28;20112;-71
2022/01/31 11:35:51;;;;;;;5.78;1.20;;;12.80;62.70;;;;;;5085813;28;20019;-70
2022/01/31 11:38:17;;;;;;;3.47;0.73;;;12.70;62.10;;;;;;5076432;28;20032;-70
2022/01/31 11:40:43;;;;;;;5.03;1.25;;;12.60;61.60;;;;;;5077559;28;21328;-70
2022/01/31 11:43:10;;;;;;;5.07;0.93;;;12.40;60.60;;;;;;5083107;28;20036;-70
2022/01/31 11:45:39;;;;;;;4.90;1.27;;;12.30;61.80;;;;;;5102440;28;20027;-70
2022/01/31 11:48:23;;;;;;;5.43;1.30;;;12.20;62.00;;;;;;5086281;28;20029;-70
2022/01/31 11:50:55;;;;;;;6.85;1.20;;;12.00;62.90;;;;;;5102302;28;20445;-69
2022/01/31 11:53:34;;;;;;;6.95;1.38;;;11.80;63.60;;;;;;5097199;28;20105;-70
2022/01/31 11:56:21;;;;;;;5.93;1.30;;;11.60;64.70;;;;;;5095173;28;20028;-70
2022/01/31 11:58:52;;;;;;;6.15;1.30;;;11.50;65.70;;;;;;5072740;28;20024;-71
2022/01/31 12:01:20;;;;;;;6.13;1.08;;;11.50;66.50;;;;;;5096303;28;20125;-72
2022/01/31 12:03:54;;;;;;;3.22;0.80;;;11.40;67.00;;;;;;5091598;28;20016;-70
2022/01/31 12:06:21;;;;;;;6.60;1.10;;;11.40;67.80;;;;;;5095185;28;20540;-71
2022/01/31 12:08:49;;;;;;;5.13;1.08;;;11.40;68.00;;;;;;5093205;28;20050;-71
2022/01/31 12:11:22;;;;;;;4.10;1.10;;;11.50;68.90;;;;;;5081202;28;20020;-71
2022/01/31 12:13:52;;;;;;;4.18;1.00;;;11.70;69.70;;;;;;5092997;28;20173;-73
2022/01/31 12:22:28;;;;;;;4.53;1.20;;;13.50;69.30;;;;;;5045358;28;20025;-72
2022/01/31 12:24:53;;;;;;;5.85;1.20;;;13.70;68.10;;;;;;5036794;28;20048;-72
2022/01/31 12:27:26;;;;;;;4.32;1.08;;;13.70;65.30;;;;;;5040637;28;20041;-71
2022/01/31 12:29:58;;;;;;;6.22;1.27;;;13.20;65.30;;;;;;5038924;28;20033;-71
2022/01/31 12:32:32;;;;;;;4.75;1.02;;;12.80;66.20;;;;;;5029691;28;20072;-71
2022/01/31 12:35:01;;;;;;;5.25;1.17;;;13.00;69.10;;;;;;5028044;28;20029;-71
2022/01/31 12:37:49;;;;;;;4.68;1.30;;;13.30;67.50;;;;;;5035951;28;20411;-72
2022/01/31 12:40:29;;;;;;;3.42;1.05;;;13.90;68.40;;;;;;5035065;28;20034;-72
2022/01/31 12:45:49;;;;;;;5.78;1.20;;;14.40;66.70;;;;;;5029748;28;20025;-72
2022/01/31 12:48:25;;;;;;;4.50;1.17;;;14.50;65.30;;;;;;5018942;28;20506;-72
2022/01/31 12:50:50;;;;;;;4.70;1.15;;;14.70;65.40;;;;;;5030073;28;20448;-72
2022/01/31 12:55:58;;;;;;;7.63;1.60;;;15.20;64.40;;;;;;5051477;28;20028;-72
2022/01/31 12:58:36;;;;;;;7.13;1.40;;;15.20;63.90;;;;;;5070889;28;20038;-72
2022/01/31 13:01:11;;;;;;;4.00;1.20;;;15.30;63.10;;;;;;5072218;28;20081;-72
2022/01/31 13:03:39;;;;;;;7.30;1.85;;;15.60;64.30;;;;;;5103210;28;20060;-72
2022/01/31 13:06:29;;;;;;;6.47;1.10;;;15.60;62.50;;;;;;5069203;28;20052;-72
2022/01/31 13:09:08;;;;;;;5.53;1.35;;;15.70;63.40;;;;;;5102907;27;20028;-72
2022/01/31 13:11:34;;;;;;;6.43;1.38;;;15.90;61.50;;;;;;5085651;28;20028;-71
2022/01/31 13:14:14;;;;;;;4.63;1.10;;;16.20;61.90;;;;;;5095966;28;20519;-72
2022/01/31 13:17:25;;;;;;;7.95;1.48;;;16.30;60.70;;;;;;5082882;28;20093;-70
2022/01/31 13:19:46;;;;;;;3.83;1.13;;;16.20;58.40;;;;;;5088289;28;20028;-70
2022/01/31 13:22:28;;;;;;;4.53;1.30;;;16.00;58.70;;;;;;5093880;28;20016;-72
2022/01/31 13:25:03;;;;;;;4.85;1.15;;;16.00;57.20;;;;;;5081519;28;20099;-72
2022/01/31 13:27:34;;;;;;;4.40;1.00;;;15.90;57.80;;;;;;5088704;28;20020;-72
2022/01/31 13:30:00;;;;;;;3.75;1.00;;;15.50;56.30;;;;;;5087210;28;20019;-72